sensor_id;sensor_type;location;lat;lon;timestamp;P1;durP1;ratioP1;P2;durP2;ratioP2
4047;SDS011;2038;51.728;6.674;2023-04-07T00:00:16;44.73;;;34.00;;
4047;SDS011;2038;51.728;6.674;2023-04-07T00:02:43;45.20;;;32.13;;
4047;SDS011;2038;51.728;6.674;2023-04-07T00:05:09;45.80;;;31.60;;
4047;SDS011;2038;51.728;6.674;2023-04-07T00:07:35;40.37;;;30.20;;
4047;SDS011;2038;51.728;6.674;2023-04-07T00:10:01;39.57;;;30.70;;
4047;SDS011;2038;51.728;6.674;2023-04-07T00:12:28;41.00;;;29.97;;
4047;SDS011;2038;51.728;6.674;2023-04-07T00:14:54;42.70;;;30.03;;
4047;SDS011;2038;51.728;6.674;2023-04-07T00:17:20;42.40;;;32.70;;
4047;SDS011;2038;51.728;6.674;2023-04-07T00:19:46;47.40;;;35.03;;
4047;SDS011;2038;51.728;6.674;2023-04-07T00:22:13;43.50;;;30.10;;
4047;SDS011;2038;51.728;6.674;2023-04-07T00:24:39;41.33;;;30.50;;
4047;SDS011;2038;51.728;6.674;2023-04-07T00:27:05;45.43;;;30.97;;
4047;SDS011;2038;51.728;6.674;2023-04-07T00:29:31;48.07;;;34.67;;
4047;SDS011;2038;51.728;6.674;2023-04-07T00:31:58;41.00;;;30.77;;
4047;SDS011;2038;51.728;6.674;2023-04-07T00:34:24;44.93;;;33.63;;
4047;SDS011;2038;51.728;6.674;2023-04-07T00:36:50;42.03;;;31.50;;
4047;SDS011;2038;51.728;6.674;2023-04-07T00:39:17;48.50;;;30.33;;
4047;SDS011;2038;51.728;6.674;2023-04-07T00:41:44;52.13;;;34.60;;
4047;SDS011;2038;51.728;6.674;2023-04-07T00:44:11;43.97;;;32.90;;
4047;SDS011;2038;51.728;6.674;2023-04-07T00:46:38;48.90;;;34.03;;
4047;SDS011;2038;51.728;6.674;2023-04-07T00:49:05;42.73;;;32.10;;
4047;SDS011;2038;51.728;6.674;2023-04-07T00:51:32;46.77;;;31.50;;
4047;SDS011;2038;51.728;6.674;2023-04-07T00:53:59;42.23;;;30.93;;
4047;SDS011;2038;51.728;6.674;2023-04-07T00:56:26;41.33;;;30.90;;
4047;SDS011;2038;51.728;6.674;2023-04-07T00:58:52;43.83;;;31.50;;
4047;SDS011;2038;51.728;6.674;2023-04-07T01:01:20;40.37;;;31.37;;
4047;SDS011;2038;51.728;6.674;2023-04-07T01:06:23;37.20;;;29.40;;
4047;SDS011;2038;51.728;6.674;2023-04-07T01:09:02;48.83;;;31.43;;
4047;SDS011;2038;51.728;6.674;2023-04-07T01:11:44;42.77;;;31.60;;
4047;SDS011;2038;51.728;6.674;2023-04-07T01:14:53;47.07;;;31.37;;
4047;SDS011;2038;51.728;6.674;2023-04-07T01:17:28;40.03;;;28.70;;
4047;SDS011;2038;51.728;6.674;2023-04-07T01:20:00;34.97;;;27.63;;
4047;SDS011;2038;51.728;6.674;2023-04-07T01:22:39;40.20;;;30.30;;
4047;SDS011;2038;51.728;6.674;2023-04-07T01:31:21;48.33;;;31.50;;
4047;SDS011;2038;51.728;6.674;2023-04-07T01:33:50;40.10;;;31.40;;
4047;SDS011;2038;51.728;6.674;2023-04-07T01:36:20;39.03;;;29.23;;
4047;SDS011;2038;51.728;6.674;2023-04-07T01:38:48;49.63;;;32.90;;
4047;SDS011;2038;51.728;6.674;2023-04-07T01:41:16;44.50;;;32.37;;
4047;SDS011;2038;51.728;6.674;2023-04-07T01:43:43;46.67;;;32.27;;
4047;SDS011;2038;51.728;6.674;2023-04-07T01:46:12;49.43;;;31.60;;
4047;SDS011;2038;51.728;6.674;2023-04-07T01:48:39;49.67;;;30.23;;
4047;SDS011;2038;51.728;6.674;2023-04-07T01:51:06;47.27;;;28.37;;
4047;SDS011;2038;51.728;6.674;2023-04-07T01:53:35;50.13;;;32.10;;
4047;SDS011;2038;51.728;6.674;2023-04-07T01:56:03;59.87;;;35.30;;
4047;SDS011;2038;51.728;6.674;2023-04-07T01:58:30;48.27;;;31.40;;
4047;SDS011;2038;51.728;6.674;2023-04-07T02:00:56;49.70;;;33.23;;
4047;SDS011;2038;51.728;6.674;2023-04-07T02:03:26;54.10;;;33.20;;
4047;SDS011;2038;51.728;6.674;2023-04-07T02:06:07;50.13;;;32.73;;
4047;SDS011;2038;51.728;6.674;2023-04-07T02:08:40;55.37;;;34.10;;
4047;SDS011;2038;51.728;6.674;2023-04-07T02:11:13;49.87;;;31.63;;
4047;SDS011;2038;51.728;6.674;2023-04-07T02:13:44;52.93;;;34.13;;
4047;SDS011;2038;51.728;6.674;2023-04-07T02:16:11;71.43;;;36.70;;
4047;SDS011;2038;51.728;6.674;2023-04-07T02:18:40;53.63;;;33.80;;
4047;SDS011;2038;51.728;6.674;2023-04-07T02:21:10;57.83;;;36.07;;
4047;SDS011;2038;51.728;6.674;2023-04-07T02:23:39;54.10;;;35.30;;
4047;SDS011;2038;51.728;6.674;2023-04-07T02:26:05;53.53;;;34.83;;
4047;SDS011;2038;51.728;6.674;2023-04-07T02:28:32;65.20;;;36.10;;
4047;SDS011;2038;51.728;6.674;2023-04-07T02:30:58;57.10;;;32.90;;
4047;SDS011;2038;51.728;6.674;2023-04-07T02:33:24;54.67;;;34.00;;
4047;SDS011;2038;51.728;6.674;2023-04-07T02:35:50;56.03;;;33.70;;
4047;SDS011;2038;51.728;6.674;2023-04-07T02:38:16;57.03;;;31.87;;
4047;SDS011;2038;51.728;6.674;2023-04-07T02:40:42;61.90;;;34.93;;
4047;SDS011;2038;51.728;6.674;2023-04-07T02:43:09;61.63;;;34.87;;
4047;SDS011;2038;51.728;6.674;2023-04-07T02:45:35;60.57;;;36.20;;
4047;SDS011;2038;51.728;6.674;2023-04-07T02:48:02;57.43;;;33.97;;
4047;SDS011;2038;51.728;6.674;2023-04-07T02:50:28;67.50;;;39.30;;
4047;SDS011;2038;51.728;6.674;2023-04-07T02:52:54;61.67;;;36.40;;
4047;SDS011;2038;51.728;6.674;2023-04-07T02:55:20;62.93;;;35.57;;
4047;SDS011;2038;51.728;6.674;2023-04-07T02:57:47;50.67;;;33.67;;
4047;SDS011;2038;51.728;6.674;2023-04-07T03:00:14;60.20;;;35.60;;
4047;SDS011;2038;51.728;6.674;2023-04-07T03:02:40;56.83;;;35.60;;
4047;SDS011;2038;51.728;6.674;2023-04-07T03:05:07;63.27;;;37.17;;
4047;SDS011;2038;51.728;6.674;2023-04-07T03:07:33;71.77;;;38.47;;
4047;SDS011;2038;51.728;6.674;2023-04-07T03:09:59;64.33;;;36.33;;
4047;SDS011;2038;51.728;6.674;2023-04-07T03:12:26;62.87;;;35.80;;
4047;SDS011;2038;51.728;6.674;2023-04-07T03:14:52;70.30;;;37.30;;
4047;SDS011;2038;51.728;6.674;2023-04-07T03:17:18;59.13;;;34.50;;
4047;SDS011;2038;51.728;6.674;2023-04-07T03:19:44;61.50;;;36.90;;
4047;SDS011;2038;51.728;6.674;2023-04-07T03:22:11;66.23;;;36.13;;
4047;SDS011;2038;51.728;6.674;2023-04-07T03:24:37;61.73;;;35.90;;
4047;SDS011;2038;51.728;6.674;2023-04-07T03:27:05;61.57;;;35.47;;
4047;SDS011;2038;51.728;6.674;2023-04-07T03:29:31;66.10;;;36.20;;
4047;SDS011;2038;51.728;6.674;2023-04-07T03:31:57;64.67;;;34.70;;
4047;SDS011;2038;51.728;6.674;2023-04-07T03:34:23;64.70;;;33.87;;
4047;SDS011;2038;51.728;6.674;2023-04-07T03:36:50;74.43;;;37.53;;
4047;SDS011;2038;51.728;6.674;2023-04-07T03:39:16;70.23;;;37.10;;
4047;SDS011;2038;51.728;6.674;2023-04-07T03:41:42;71.07;;;35.50;;
4047;SDS011;2038;51.728;6.674;2023-04-07T03:44:08;58.53;;;33.50;;
4047;SDS011;2038;51.728;6.674;2023-04-07T03:46:35;60.37;;;32.00;;
4047;SDS011;2038;51.728;6.674;2023-04-07T03:49:02;62.40;;;33.40;;
4047;SDS011;2038;51.728;6.674;2023-04-07T03:51:34;61.33;;;32.17;;
4047;SDS011;2038;51.728;6.674;2023-04-07T03:54:00;64.53;;;29.90;;
4047;SDS011;2038;51.728;6.674;2023-04-07T03:56:26;49.77;;;27.30;;
4047;SDS011;2038;51.728;6.674;2023-04-07T03:58:53;48.97;;;26.60;;
4047;SDS011;2038;51.728;6.674;2023-04-07T04:01:19;44.67;;;25.20;;
4047;SDS011;2038;51.728;6.674;2023-04-07T04:03:46;41.53;;;21.20;;
4047;SDS011;2038;51.728;6.674;2023-04-07T04:06:13;34.97;;;21.27;;
4047;SDS011;2038;51.728;6.674;2023-04-07T04:08:40;37.30;;;20.43;;
4047;SDS011;2038;51.728;6.674;2023-04-07T04:11:06;36.73;;;19.10;;
4047;SDS011;2038;51.728;6.674;2023-04-07T04:13:32;40.97;;;23.80;;
4047;SDS011;2038;51.728;6.674;2023-04-07T04:15:58;36.93;;;21.03;;
4047;SDS011;2038;51.728;6.674;2023-04-07T04:18:24;40.93;;;21.20;;
4047;SDS011;2038;51.728;6.674;2023-04-07T04:20:51;35.43;;;20.73;;
4047;SDS011;2038;51.728;6.674;2023-04-07T04:23:17;34.73;;;20.17;;
4047;SDS011;2038;51.728;6.674;2023-04-07T04:25:43;39.10;;;19.60;;
4047;SDS011;2038;51.728;6.674;2023-04-07T04:28:09;33.13;;;18.60;;
4047;SDS011;2038;51.728;6.674;2023-04-07T04:30:35;33.37;;;18.90;;
4047;SDS011;2038;51.728;6.674;2023-04-07T04:33:02;31.73;;;19.53;;
4047;SDS011;2038;51.728;6.674;2023-04-07T04:35:28;29.33;;;17.33;;
4047;SDS011;2038;51.728;6.674;2023-04-07T04:37:54;28.60;;;18.70;;
4047;SDS011;2038;51.728;6.674;2023-04-07T04:40:21;26.63;;;16.13;;
4047;SDS011;2038;51.728;6.674;2023-04-07T04:42:47;25.30;;;15.73;;
4047;SDS011;2038;51.728;6.674;2023-04-07T04:45:13;29.23;;;16.07;;
4047;SDS011;2038;51.728;6.674;2023-04-07T04:47:39;26.33;;;15.27;;
4047;SDS011;2038;51.728;6.674;2023-04-07T04:50:08;30.67;;;17.00;;
4047;SDS011;2038;51.728;6.674;2023-04-07T04:52:35;26.60;;;14.23;;
4047;SDS011;2038;51.728;6.674;2023-04-07T04:55:02;26.77;;;14.43;;
4047;SDS011;2038;51.728;6.674;2023-04-07T04:57:28;24.43;;;14.80;;
4047;SDS011;2038;51.728;6.674;2023-04-07T04:59:54;19.23;;;12.60;;
4047;SDS011;2038;51.728;6.674;2023-04-07T05:02:21;25.30;;;15.70;;
4047;SDS011;2038;51.728;6.674;2023-04-07T05:04:47;26.10;;;14.37;;
4047;SDS011;2038;51.728;6.674;2023-04-07T05:07:13;21.83;;;14.00;;
4047;SDS011;2038;51.728;6.674;2023-04-07T05:09:39;23.47;;;13.17;;
4047;SDS011;2038;51.728;6.674;2023-04-07T05:12:05;20.50;;;12.63;;
4047;SDS011;2038;51.728;6.674;2023-04-07T05:14:32;24.90;;;12.33;;
4047;SDS011;2038;51.728;6.674;2023-04-07T05:16:58;24.40;;;11.40;;
4047;SDS011;2038;51.728;6.674;2023-04-07T05:19:25;18.77;;;11.70;;
4047;SDS011;2038;51.728;6.674;2023-04-07T05:21:53;22.13;;;10.43;;
4047;SDS011;2038;51.728;6.674;2023-04-07T05:24:20;19.77;;;10.50;;
4047;SDS011;2038;51.728;6.674;2023-04-07T05:26:46;19.03;;;12.17;;
4047;SDS011;2038;51.728;6.674;2023-04-07T05:29:12;17.47;;;10.50;;
4047;SDS011;2038;51.728;6.674;2023-04-07T05:31:38;23.63;;;10.70;;
4047;SDS011;2038;51.728;6.674;2023-04-07T05:34:05;16.57;;;10.73;;
4047;SDS011;2038;51.728;6.674;2023-04-07T05:36:32;19.03;;;10.47;;
4047;SDS011;2038;51.728;6.674;2023-04-07T05:38:59;13.77;;;9.20;;
4047;SDS011;2038;51.728;6.674;2023-04-07T05:41:25;22.73;;;10.80;;
4047;SDS011;2038;51.728;6.674;2023-04-07T05:43:51;23.40;;;10.50;;
4047;SDS011;2038;51.728;6.674;2023-04-07T05:46:18;16.63;;;9.20;;
4047;SDS011;2038;51.728;6.674;2023-04-07T05:48:44;19.27;;;10.20;;
4047;SDS011;2038;51.728;6.674;2023-04-07T05:51:10;15.93;;;9.63;;
4047;SDS011;2038;51.728;6.674;2023-04-07T05:53:36;21.47;;;9.77;;
4047;SDS011;2038;51.728;6.674;2023-04-07T05:56:02;17.27;;;10.17;;
4047;SDS011;2038;51.728;6.674;2023-04-07T05:58:29;18.13;;;9.13;;
4047;SDS011;2038;51.728;6.674;2023-04-07T06:00:55;14.63;;;9.07;;
4047;SDS011;2038;51.728;6.674;2023-04-07T06:03:21;14.20;;;9.27;;
4047;SDS011;2038;51.728;6.674;2023-04-07T06:05:47;17.70;;;10.30;;
4047;SDS011;2038;51.728;6.674;2023-04-07T06:08:14;24.00;;;10.90;;
4047;SDS011;2038;51.728;6.674;2023-04-07T06:10:40;17.87;;;11.33;;
4047;SDS011;2038;51.728;6.674;2023-04-07T06:13:08;17.27;;;9.73;;
4047;SDS011;2038;51.728;6.674;2023-04-07T06:15:34;17.43;;;9.27;;
4047;SDS011;2038;51.728;6.674;2023-04-07T06:18:00;19.87;;;11.50;;
4047;SDS011;2038;51.728;6.674;2023-04-07T06:20:26;20.80;;;11.10;;
4047;SDS011;2038;51.728;6.674;2023-04-07T06:22:53;18.17;;;10.40;;
4047;SDS011;2038;51.728;6.674;2023-04-07T06:25:20;21.13;;;10.33;;
4047;SDS011;2038;51.728;6.674;2023-04-07T06:27:46;25.73;;;11.77;;
4047;SDS011;2038;51.728;6.674;2023-04-07T06:30:12;17.27;;;11.43;;
4047;SDS011;2038;51.728;6.674;2023-04-07T06:32:40;23.50;;;11.10;;
4047;SDS011;2038;51.728;6.674;2023-04-07T06:35:06;27.87;;;13.33;;
4047;SDS011;2038;51.728;6.674;2023-04-07T06:37:32;18.60;;;11.33;;
4047;SDS011;2038;51.728;6.674;2023-04-07T06:39:59;29.50;;;14.53;;
4047;SDS011;2038;51.728;6.674;2023-04-07T06:42:25;33.93;;;13.50;;
4047;SDS011;2038;51.728;6.674;2023-04-07T06:44:51;23.77;;;13.40;;
4047;SDS011;2038;51.728;6.674;2023-04-07T06:47:18;19.50;;;10.97;;
4047;SDS011;2038;51.728;6.674;2023-04-07T06:49:45;18.83;;;11.27;;
4047;SDS011;2038;51.728;6.674;2023-04-07T06:52:11;21.70;;;11.63;;
4047;SDS011;2038;51.728;6.674;2023-04-07T06:54:37;21.60;;;10.80;;
4047;SDS011;2038;51.728;6.674;2023-04-07T06:57:03;23.53;;;12.90;;
4047;SDS011;2038;51.728;6.674;2023-04-07T06:59:35;26.53;;;12.83;;
4047;SDS011;2038;51.728;6.674;2023-04-07T07:02:02;29.60;;;11.97;;
4047;SDS011;2038;51.728;6.674;2023-04-07T07:04:28;21.30;;;10.87;;
4047;SDS011;2038;51.728;6.674;2023-04-07T07:06:55;24.43;;;11.07;;
4047;SDS011;2038;51.728;6.674;2023-04-07T07:09:21;25.93;;;11.63;;
4047;SDS011;2038;51.728;6.674;2023-04-07T07:11:48;25.93;;;11.10;;
4047;SDS011;2038;51.728;6.674;2023-04-07T07:14:14;32.10;;;12.07;;
4047;SDS011;2038;51.728;6.674;2023-04-07T07:16:40;18.23;;;11.20;;
4047;SDS011;2038;51.728;6.674;2023-04-07T07:19:06;21.17;;;10.50;;
4047;SDS011;2038;51.728;6.674;2023-04-07T07:21:33;18.97;;;11.83;;
4047;SDS011;2038;51.728;6.674;2023-04-07T07:24:00;21.53;;;10.90;;
4047;SDS011;2038;51.728;6.674;2023-04-07T07:26:26;22.53;;;11.90;;
4047;SDS011;2038;51.728;6.674;2023-04-07T07:28:54;22.37;;;10.90;;
4047;SDS011;2038;51.728;6.674;2023-04-07T07:31:20;23.50;;;12.27;;
4047;SDS011;2038;51.728;6.674;2023-04-07T07:33:46;22.50;;;12.40;;
4047;SDS011;2038;51.728;6.674;2023-04-07T07:36:13;22.73;;;13.10;;
4047;SDS011;2038;51.728;6.674;2023-04-07T07:38:40;24.57;;;11.90;;
4047;SDS011;2038;51.728;6.674;2023-04-07T07:41:06;30.83;;;13.50;;
4047;SDS011;2038;51.728;6.674;2023-04-07T07:43:32;18.40;;;10.63;;
4047;SDS011;2038;51.728;6.674;2023-04-07T07:45:59;18.70;;;10.67;;
4047;SDS011;2038;51.728;6.674;2023-04-07T07:48:25;23.93;;;12.20;;
4047;SDS011;2038;51.728;6.674;2023-04-07T07:50:51;22.77;;;12.87;;
4047;SDS011;2038;51.728;6.674;2023-04-07T07:53:20;27.13;;;13.80;;
4047;SDS011;2038;51.728;6.674;2023-04-07T07:55:47;15.90;;;11.03;;
4047;SDS011;2038;51.728;6.674;2023-04-07T07:58:13;24.00;;;11.30;;
4047;SDS011;2038;51.728;6.674;2023-04-07T08:00:40;22.83;;;11.60;;
4047;SDS011;2038;51.728;6.674;2023-04-07T08:03:06;19.60;;;11.87;;
4047;SDS011;2038;51.728;6.674;2023-04-07T08:05:32;23.60;;;10.47;;
4047;SDS011;2038;51.728;6.674;2023-04-07T08:07:59;20.37;;;10.77;;
4047;SDS011;2038;51.728;6.674;2023-04-07T08:10:25;16.97;;;11.17;;
4047;SDS011;2038;51.728;6.674;2023-04-07T08:12:51;24.60;;;10.70;;
4047;SDS011;2038;51.728;6.674;2023-04-07T08:15:17;19.00;;;11.53;;
4047;SDS011;2038;51.728;6.674;2023-04-07T08:17:44;22.20;;;10.87;;
4047;SDS011;2038;51.728;6.674;2023-04-07T08:20:11;16.00;;;9.57;;
4047;SDS011;2038;51.728;6.674;2023-04-07T08:22:37;18.53;;;11.07;;
4047;SDS011;2038;51.728;6.674;2023-04-07T08:25:03;18.53;;;9.27;;
4047;SDS011;2038;51.728;6.674;2023-04-07T08:27:30;17.20;;;10.60;;
4047;SDS011;2038;51.728;6.674;2023-04-07T08:30:03;14.60;;;9.20;;
4047;SDS011;2038;51.728;6.674;2023-04-07T08:32:36;25.13;;;11.03;;
4047;SDS011;2038;51.728;6.674;2023-04-07T08:35:06;16.27;;;10.30;;
4047;SDS011;2038;51.728;6.674;2023-04-07T08:37:33;18.83;;;10.27;;
4047;SDS011;2038;51.728;6.674;2023-04-07T08:40:01;18.73;;;11.00;;
4047;SDS011;2038;51.728;6.674;2023-04-07T08:42:29;19.60;;;10.23;;
4047;SDS011;2038;51.728;6.674;2023-04-07T08:45:04;17.37;;;10.90;;
4047;SDS011;2038;51.728;6.674;2023-04-07T08:47:32;15.53;;;11.27;;
4047;SDS011;2038;51.728;6.674;2023-04-07T08:50:01;18.60;;;10.50;;
4047;SDS011;2038;51.728;6.674;2023-04-07T08:52:39;14.13;;;9.50;;
4047;SDS011;2038;51.728;6.674;2023-04-07T08:55:14;13.90;;;9.50;;
4047;SDS011;2038;51.728;6.674;2023-04-07T08:57:41;13.07;;;9.20;;
4047;SDS011;2038;51.728;6.674;2023-04-07T09:00:08;15.27;;;9.50;;
4047;SDS011;2038;51.728;6.674;2023-04-07T09:02:35;11.17;;;7.63;;
4047;SDS011;2038;51.728;6.674;2023-04-07T09:05:05;15.03;;;9.30;;
4047;SDS011;2038;51.728;6.674;2023-04-07T09:07:33;16.27;;;9.70;;
4047;SDS011;2038;51.728;6.674;2023-04-07T09:10:02;12.73;;;9.03;;
4047;SDS011;2038;51.728;6.674;2023-04-07T09:12:30;16.87;;;9.27;;
4047;SDS011;2038;51.728;6.674;2023-04-07T09:14:57;18.83;;;9.57;;
4047;SDS011;2038;51.728;6.674;2023-04-07T09:17:24;13.97;;;8.50;;
4047;SDS011;2038;51.728;6.674;2023-04-07T09:19:52;14.20;;;7.90;;
4047;SDS011;2038;51.728;6.674;2023-04-07T09:25:20;12.47;;;7.70;;
4047;SDS011;2038;51.728;6.674;2023-04-07T09:28:08;18.43;;;8.27;;
4047;SDS011;2038;51.728;6.674;2023-04-07T09:30:34;17.43;;;9.80;;
4047;SDS011;2038;51.728;6.674;2023-04-07T09:33:00;20.97;;;9.53;;
4047;SDS011;2038;51.728;6.674;2023-04-07T09:35:27;16.20;;;8.20;;
4047;SDS011;2038;51.728;6.674;2023-04-07T09:38:06;18.03;;;8.70;;
4047;SDS011;2038;51.728;6.674;2023-04-07T09:40:34;12.33;;;8.03;;
4047;SDS011;2038;51.728;6.674;2023-04-07T09:43:04;18.87;;;10.37;;
4047;SDS011;2038;51.728;6.674;2023-04-07T09:45:38;18.63;;;11.13;;
4047;SDS011;2038;51.728;6.674;2023-04-07T09:48:05;16.23;;;10.73;;
4047;SDS011;2038;51.728;6.674;2023-04-07T09:50:41;17.63;;;8.73;;
4047;SDS011;2038;51.728;6.674;2023-04-07T09:53:09;16.80;;;10.53;;
4047;SDS011;2038;51.728;6.674;2023-04-07T09:55:36;19.60;;;11.90;;
4047;SDS011;2038;51.728;6.674;2023-04-07T09:58:05;17.40;;;10.30;;
4047;SDS011;2038;51.728;6.674;2023-04-07T10:00:32;21.50;;;10.93;;
4047;SDS011;2038;51.728;6.674;2023-04-07T10:03:00;22.33;;;11.60;;
4047;SDS011;2038;51.728;6.674;2023-04-07T10:05:28;17.33;;;11.20;;
4047;SDS011;2038;51.728;6.674;2023-04-07T10:07:56;20.10;;;13.67;;
4047;SDS011;2038;51.728;6.674;2023-04-07T10:10:23;25.93;;;13.23;;
4047;SDS011;2038;51.728;6.674;2023-04-07T10:12:50;26.73;;;14.80;;
4047;SDS011;2038;51.728;6.674;2023-04-07T10:15:21;21.63;;;12.80;;
4047;SDS011;2038;51.728;6.674;2023-04-07T10:17:48;24.17;;;13.73;;
4047;SDS011;2038;51.728;6.674;2023-04-07T10:20:18;20.93;;;12.57;;
4047;SDS011;2038;51.728;6.674;2023-04-07T10:22:47;21.20;;;12.23;;
4047;SDS011;2038;51.728;6.674;2023-04-07T10:25:18;19.13;;;11.80;;
4047;SDS011;2038;51.728;6.674;2023-04-07T10:27:50;18.83;;;10.87;;
4047;SDS011;2038;51.728;6.674;2023-04-07T10:30:24;15.87;;;10.50;;
4047;SDS011;2038;51.728;6.674;2023-04-07T10:32:54;19.80;;;11.60;;
4047;SDS011;2038;51.728;6.674;2023-04-07T10:35:21;21.73;;;11.67;;
4047;SDS011;2038;51.728;6.674;2023-04-07T10:40:35;21.00;;;11.07;;
4047;SDS011;2038;51.728;6.674;2023-04-07T10:43:02;20.93;;;12.03;;
4047;SDS011;2038;51.728;6.674;2023-04-07T10:48:17;16.10;;;10.60;;
4047;SDS011;2038;51.728;6.674;2023-04-07T10:50:45;16.97;;;10.40;;
4047;SDS011;2038;51.728;6.674;2023-04-07T10:53:32;13.03;;;9.53;;
4047;SDS011;2038;51.728;6.674;2023-04-07T10:55:59;17.23;;;8.90;;
4047;SDS011;2038;51.728;6.674;2023-04-07T10:58:25;17.57;;;9.07;;
4047;SDS011;2038;51.728;6.674;2023-04-07T11:03:26;15.63;;;10.13;;
4047;SDS011;2038;51.728;6.674;2023-04-07T11:08:35;16.67;;;11.10;;
4047;SDS011;2038;51.728;6.674;2023-04-07T11:11:04;15.60;;;8.57;;
4047;SDS011;2038;51.728;6.674;2023-04-07T11:13:41;14.40;;;8.60;;
4047;SDS011;2038;51.728;6.674;2023-04-07T11:16:16;12.50;;;8.27;;
4047;SDS011;2038;51.728;6.674;2023-04-07T11:18:58;11.20;;;7.97;;
4047;SDS011;2038;51.728;6.674;2023-04-07T11:21:24;10.83;;;8.33;;
4047;SDS011;2038;51.728;6.674;2023-04-07T11:23:50;13.27;;;7.13;;
4047;SDS011;2038;51.728;6.674;2023-04-07T11:26:17;11.40;;;7.37;;
4047;SDS011;2038;51.728;6.674;2023-04-07T11:28:47;12.13;;;7.10;;
4047;SDS011;2038;51.728;6.674;2023-04-07T11:31:25;11.40;;;6.83;;
4047;SDS011;2038;51.728;6.674;2023-04-07T11:33:55;11.07;;;6.93;;
4047;SDS011;2038;51.728;6.674;2023-04-07T11:36:25;11.57;;;7.00;;
4047;SDS011;2038;51.728;6.674;2023-04-07T11:38:57;9.97;;;6.40;;
4047;SDS011;2038;51.728;6.674;2023-04-07T11:41:26;10.30;;;7.97;;
4047;SDS011;2038;51.728;6.674;2023-04-07T11:44:08;10.60;;;6.60;;
4047;SDS011;2038;51.728;6.674;2023-04-07T11:46:36;9.03;;;6.00;;
4047;SDS011;2038;51.728;6.674;2023-04-07T11:49:27;8.03;;;5.93;;
4047;SDS011;2038;51.728;6.674;2023-04-07T11:51:57;8.10;;;5.43;;
4047;SDS011;2038;51.728;6.674;2023-04-07T11:57:25;7.60;;;5.50;;
4047;SDS011;2038;51.728;6.674;2023-04-07T12:02:36;6.80;;;5.40;;
4047;SDS011;2038;51.728;6.674;2023-04-07T12:05:03;8.37;;;5.80;;
4047;SDS011;2038;51.728;6.674;2023-04-07T12:07:30;10.07;;;5.00;;
4047;SDS011;2038;51.728;6.674;2023-04-07T12:09:57;9.30;;;7.27;;
4047;SDS011;2038;51.728;6.674;2023-04-07T12:12:43;10.20;;;7.63;;
4047;SDS011;2038;51.728;6.674;2023-04-07T12:15:11;14.63;;;8.83;;
4047;SDS011;2038;51.728;6.674;2023-04-07T12:17:38;11.50;;;6.93;;
4047;SDS011;2038;51.728;6.674;2023-04-07T12:20:11;9.70;;;7.90;;
4047;SDS011;2038;51.728;6.674;2023-04-07T12:22:38;9.00;;;7.30;;
4047;SDS011;2038;51.728;6.674;2023-04-07T12:25:05;10.60;;;6.87;;
4047;SDS011;2038;51.728;6.674;2023-04-07T12:27:32;8.50;;;6.60;;
4047;SDS011;2038;51.728;6.674;2023-04-07T12:29:58;10.33;;;6.47;;
4047;SDS011;2038;51.728;6.674;2023-04-07T12:32:25;7.87;;;6.53;;
4047;SDS011;2038;51.728;6.674;2023-04-07T12:34:52;11.10;;;7.80;;
4047;SDS011;2038;51.728;6.674;2023-04-07T12:37:19;8.90;;;7.40;;
4047;SDS011;2038;51.728;6.674;2023-04-07T12:39:45;9.33;;;7.10;;
4047;SDS011;2038;51.728;6.674;2023-04-07T12:42:11;12.00;;;8.13;;
4047;SDS011;2038;51.728;6.674;2023-04-07T12:44:38;9.30;;;6.60;;
4047;SDS011;2038;51.728;6.674;2023-04-07T12:47:04;6.17;;;4.40;;
4047;SDS011;2038;51.728;6.674;2023-04-07T12:49:31;4.77;;;3.73;;
4047;SDS011;2038;51.728;6.674;2023-04-07T12:51:57;5.63;;;3.70;;
4047;SDS011;2038;51.728;6.674;2023-04-07T12:54:23;4.30;;;3.10;;
4047;SDS011;2038;51.728;6.674;2023-04-07T12:56:50;4.30;;;3.70;;
4047;SDS011;2038;51.728;6.674;2023-04-07T12:59:16;3.87;;;3.50;;
4047;SDS011;2038;51.728;6.674;2023-04-07T13:01:42;6.23;;;5.57;;
4047;SDS011;2038;51.728;6.674;2023-04-07T13:04:09;8.20;;;6.37;;
4047;SDS011;2038;51.728;6.674;2023-04-07T13:06:35;8.83;;;7.07;;
4047;SDS011;2038;51.728;6.674;2023-04-07T13:09:02;9.57;;;8.00;;
4047;SDS011;2038;51.728;6.674;2023-04-07T13:11:28;9.37;;;7.37;;
4047;SDS011;2038;51.728;6.674;2023-04-07T13:13:54;11.13;;;9.40;;
4047;SDS011;2038;51.728;6.674;2023-04-07T13:16:20;10.40;;;8.80;;
4047;SDS011;2038;51.728;6.674;2023-04-07T13:18:46;10.10;;;8.97;;
4047;SDS011;2038;51.728;6.674;2023-04-07T13:21:13;11.27;;;9.47;;
4047;SDS011;2038;51.728;6.674;2023-04-07T13:23:40;12.33;;;9.30;;
4047;SDS011;2038;51.728;6.674;2023-04-07T13:26:06;13.13;;;9.77;;
4047;SDS011;2038;51.728;6.674;2023-04-07T13:28:32;13.10;;;10.93;;
4047;SDS011;2038;51.728;6.674;2023-04-07T13:30:58;16.40;;;10.60;;
4047;SDS011;2038;51.728;6.674;2023-04-07T13:33:25;14.57;;;11.53;;
4047;SDS011;2038;51.728;6.674;2023-04-07T13:35:51;13.90;;;10.90;;
4047;SDS011;2038;51.728;6.674;2023-04-07T13:38:17;21.30;;;13.07;;
4047;SDS011;2038;51.728;6.674;2023-04-07T13:40:43;14.20;;;11.00;;
4047;SDS011;2038;51.728;6.674;2023-04-07T13:43:13;13.97;;;11.73;;
4047;SDS011;2038;51.728;6.674;2023-04-07T13:45:39;12.20;;;9.60;;
4047;SDS011;2038;51.728;6.674;2023-04-07T13:48:05;12.73;;;10.70;;
4047;SDS011;2038;51.728;6.674;2023-04-07T13:50:34;13.53;;;9.60;;
4047;SDS011;2038;51.728;6.674;2023-04-07T13:53:01;11.00;;;9.13;;
4047;SDS011;2038;51.728;6.674;2023-04-07T13:55:27;11.80;;;9.10;;
4047;SDS011;2038;51.728;6.674;2023-04-07T13:57:53;10.90;;;9.10;;
4047;SDS011;2038;51.728;6.674;2023-04-07T14:00:20;10.33;;;8.00;;
4047;SDS011;2038;51.728;6.674;2023-04-07T14:02:46;11.97;;;9.20;;
4047;SDS011;2038;51.728;6.674;2023-04-07T14:05:13;11.30;;;8.93;;
4047;SDS011;2038;51.728;6.674;2023-04-07T14:07:39;10.73;;;9.63;;
4047;SDS011;2038;51.728;6.674;2023-04-07T14:10:05;12.50;;;8.83;;
4047;SDS011;2038;51.728;6.674;2023-04-07T14:12:32;9.90;;;8.43;;
4047;SDS011;2038;51.728;6.674;2023-04-07T14:14:58;9.90;;;7.97;;
4047;SDS011;2038;51.728;6.674;2023-04-07T14:17:25;9.57;;;8.07;;
4047;SDS011;2038;51.728;6.674;2023-04-07T14:19:51;9.23;;;8.23;;
4047;SDS011;2038;51.728;6.674;2023-04-07T14:22:17;10.77;;;9.00;;
4047;SDS011;2038;51.728;6.674;2023-04-07T14:24:44;8.93;;;7.27;;
4047;SDS011;2038;51.728;6.674;2023-04-07T14:27:10;10.57;;;8.00;;
4047;SDS011;2038;51.728;6.674;2023-04-07T14:29:38;11.30;;;7.13;;
4047;SDS011;2038;51.728;6.674;2023-04-07T14:32:04;8.23;;;6.60;;
4047;SDS011;2038;51.728;6.674;2023-04-07T14:34:30;8.13;;;6.80;;
4047;SDS011;2038;51.728;6.674;2023-04-07T14:36:56;7.80;;;6.60;;
4047;SDS011;2038;51.728;6.674;2023-04-07T14:39:23;8.23;;;7.33;;
4047;SDS011;2038;51.728;6.674;2023-04-07T14:41:50;8.63;;;7.70;;
4047;SDS011;2038;51.728;6.674;2023-04-07T14:44:17;8.33;;;5.90;;
4047;SDS011;2038;51.728;6.674;2023-04-07T14:46:43;7.33;;;6.53;;
4047;SDS011;2038;51.728;6.674;2023-04-07T14:49:12;7.60;;;6.90;;
4047;SDS011;2038;51.728;6.674;2023-04-07T14:51:39;7.30;;;6.50;;
4047;SDS011;2038;51.728;6.674;2023-04-07T14:54:05;9.00;;;7.70;;
4047;SDS011;2038;51.728;6.674;2023-04-07T14:56:32;7.73;;;6.93;;
4047;SDS011;2038;51.728;6.674;2023-04-07T14:58:58;8.67;;;6.60;;
4047;SDS011;2038;51.728;6.674;2023-04-07T15:01:24;7.17;;;5.90;;
4047;SDS011;2038;51.728;6.674;2023-04-07T15:03:51;9.13;;;7.47;;
4047;SDS011;2038;51.728;6.674;2023-04-07T15:06:17;9.20;;;7.03;;
4047;SDS011;2038;51.728;6.674;2023-04-07T15:08:44;9.10;;;7.83;;
4047;SDS011;2038;51.728;6.674;2023-04-07T15:11:11;8.40;;;7.50;;
4047;SDS011;2038;51.728;6.674;2023-04-07T15:13:37;8.53;;;6.80;;
4047;SDS011;2038;51.728;6.674;2023-04-07T15:16:07;8.30;;;7.47;;
4047;SDS011;2038;51.728;6.674;2023-04-07T15:18:37;8.23;;;6.70;;
4047;SDS011;2038;51.728;6.674;2023-04-07T15:21:09;10.37;;;8.47;;
4047;SDS011;2038;51.728;6.674;2023-04-07T15:23:37;11.93;;;7.60;;
4047;SDS011;2038;51.728;6.674;2023-04-07T15:26:05;9.53;;;7.80;;